Time;durP1;ratioP1;P1;durP2;ratioP2;P2;SDS_P1;SDS_P2;PMS_P1;PMS_P2;Temp;Humidity;BMP_temperature;BMP_pressure;BME280_temperature;BME280_humidity;BME280_pressure;Samples;Min_cycle;Max_cycle;Signal;HPM_P1;HPM_P2
2023/08/01 00:01:36;;;;;;;;;;;16.90;99.90;;;;;;8425313;28;19924;-72
2023/08/01 00:05:38;;;;;;;;;;;16.90;99.90;;;;;;8426914;28;19936;-72
2023/08/01 00:09:40;;;;;;;;;;;16.90;99.90;;;;;;8411336;28;19971;-72
2023/08/01 00:13:43;;;;;;;;;;;16.90;99.90;;;;;;8431167;28;20288;-71
2023/08/01 00:17:44;;;;;;;;;;;16.80;99.90;;;;;;8427178;28;20334;-72
2023/08/01 00:21:46;;;;;;;;;;;16.80;99.90;;;;;;8432050;28;19955;-72
2023/08/01 00:25:51;;;;;;;;;;;16.80;99.90;;;;;;8407354;28;19981;-72
2023/08/01 00:55:09;;;;;;;;;;;16.70;99.90;;;;;;8413283;28;19919;-72
2023/08/01 00:59:12;;;;;;;;;;;16.70;99.90;;;;;;8419560;28;20338;-71
2023/08/01 01:03:14;;;;;;;;;;;16.70;99.90;;;;;;8426564;28;19969;-71
2023/08/01 01:07:17;;;;;;;;;;;16.70;99.90;;;;;;8406803;28;19969;-71
2023/08/01 01:11:19;;;;;;;;;;;16.70;99.90;;;;;;8418238;28;20448;-72
2023/08/01 01:15:20;;;;;;;;;;;16.70;99.90;;;;;;8417298;28;20849;-71
2023/08/01 01:19:22;;;;;;;;;;;16.70;99.90;;;;;;8424887;28;19924;-72
2023/08/01 01:23:25;;;;;;;;;;;16.70;99.90;;;;;;8420943;28;19924;-72
2023/08/01 01:27:27;;;;;;;;;;;16.60;99.90;;;;;;8422333;28;19924;-72
2023/08/01 01:31:30;;;;;;;;;;;16.60;99.90;;;;;;8406227;28;20261;-72
2023/08/01 01:35:35;;;;;;;;;;;16.60;99.90;;;;;;8409959;28;19924;-71
2023/08/01 01:49:43;;;;;;;;;;;16.40;99.90;;;;;;8424201;28;19919;-71
2023/08/01 01:53:45;;;;;;;;;;;16.40;99.90;;;;;;8416840;28;19951;-71
2023/08/01 01:57:47;;;;;;;;;;;16.40;99.90;;;;;;8422863;28;20294;-71
2023/08/01 02:01:48;;;;;;;;;;;16.30;99.90;;;;;;8403540;28;19924;-71
2023/08/01 02:05:50;;;;;;;;;;;16.30;99.90;;;;;;8419885;28;20010;-72
2023/08/01 02:09:52;;;;;;;;;;;16.30;99.90;;;;;;8420607;28;19935;-71
2023/08/01 02:13:54;;;;;;;;;;;16.20;99.90;;;;;;8423113;28;19935;-71
2023/08/01 02:17:56;;;;;;;;;;;16.20;99.90;;;;;;8417475;28;20383;-71
2023/08/01 02:21:58;;;;;;;;;;;16.10;99.90;;;;;;8423761;28;19928;-71
2023/08/01 02:25:59;;;;;;;;;;;16.10;99.90;;;;;;8394226;28;19928;-71
2023/08/01 02:30:01;;;;;;;;;;;16.10;99.90;;;;;;8424171;28;20364;-71
2023/08/01 02:34:03;;;;;;;;;;;16.10;99.90;;;;;;8408588;28;19924;-71
2023/08/01 02:38:04;;;;;;;;;;;16.10;99.90;;;;;;8427012;28;19981;-71
2023/08/01 02:42:06;;;;;;;;;;;16.10;99.90;;;;;;8428352;28;19974;-71
2023/08/01 02:46:08;;;;;;;;;;;16.20;99.90;;;;;;8408554;28;20371;-71
2023/08/01 02:50:09;;;;;;;;;;;16.20;99.90;;;;;;8416513;28;19973;-71
2023/08/01 02:54:11;;;;;;;;;;;16.20;99.90;;;;;;8420190;28;19931;-71
2023/08/01 02:58:13;;;;;;;;;;;16.30;99.90;;;;;;8426674;28;20354;-71
2023/08/01 03:02:14;;;;;;;;;;;16.30;99.90;;;;;;8425108;28;19924;-71
2023/08/01 03:06:16;;;;;;;;;;;16.30;99.90;;;;;;8424405;28;19977;-71
2023/08/01 03:10:18;;;;;;;;;;;16.30;99.90;;;;;;8408157;28;20268;-71
2023/08/01 03:14:35;;;;;;;;;;;16.30;99.90;;;;;;8426715;28;20268;-71
2023/08/01 03:18:36;;;;;;;;;;;16.30;99.90;;;;;;8420008;28;19928;-71
2023/08/01 03:22:39;;;;;;;;;;;16.30;99.90;;;;;;8419291;28;19924;-71
2023/08/01 03:26:41;;;;;;;;;;;16.30;99.90;;;;;;8409699;28;19973;-71
2023/08/01 03:30:43;;;;;;;;;;;16.30;99.90;;;;;;8421174;28;19924;-71
2023/08/01 03:34:44;;;;;;;;;;;16.30;99.90;;;;;;8425834;28;19928;-71
2023/08/01 03:38:46;;;;;;;;;;;16.30;99.90;;;;;;8431166;28;20367;-71
2023/08/01 03:42:48;;;;;;;;;;;16.40;99.90;;;;;;8432430;28;19932;-71
2023/08/01 03:46:49;;;;;;;;;;;16.40;99.90;;;;;;8425262;28;20367;-71
2023/08/01 03:50:51;;;;;;;;;;;16.50;99.90;;;;;;8422985;28;20383;-71
2023/08/01 03:54:54;;;;;;;;;;;16.50;99.90;;;;;;8424879;28;20300;-71
2023/08/01 03:58:55;;;;;;;;;;;16.50;99.90;;;;;;8408274;28;19928;-71
2023/08/01 04:02:57;;;;;;;;;;;16.60;99.90;;;;;;8425142;28;19924;-71
2023/08/01 04:06:59;;;;;;;;;;;16.60;99.90;;;;;;8429629;28;20413;-71
2023/08/01 04:11:01;;;;;;;;;;;16.60;99.90;;;;;;8414674;28;19973;-71
2023/08/01 04:15:03;;;;;;;;;;;16.50;99.90;;;;;;8424154;28;20338;-71
2023/08/01 04:19:04;;;;;;;;;;;16.50;99.90;;;;;;8430887;28;19977;-71
2023/08/01 04:23:06;;;;;;;;;;;16.50;99.90;;;;;;8424338;28;19925;-71
2023/08/01 04:27:08;;;;;;;;;;;16.40;99.90;;;;;;8402600;28;19931;-71
2023/08/01 04:31:09;;;;;;;;;;;16.40;99.90;;;;;;8415351;28;20392;-71
2023/08/01 04:35:11;;;;;;;;;;;16.40;99.90;;;;;;8418084;28;20402;-71
2023/08/01 04:39:13;;;;;;;;;;;16.40;99.90;;;;;;8407231;28;19924;-71
2023/08/01 04:43:15;;;;;;;;;;;16.40;99.90;;;;;;8405288;28;19935;-71
2023/08/01 04:47:17;;;;;;;;;;;16.40;99.90;;;;;;8419507;28;20402;-71
2023/08/01 04:51:18;;;;;;;;;;;16.40;99.90;;;;;;8427661;28;20399;-71
2023/08/01 04:55:20;;;;;;;;;;;16.40;99.90;;;;;;8429690;28;19928;-71
2023/08/01 04:59:22;;;;;;;;;;;16.40;99.90;;;;;;8424710;28;19924;-71
2023/08/01 05:03:23;;;;;;;;;;;16.40;99.90;;;;;;8418941;28;19924;-71
2023/08/01 05:07:25;;;;;;;;;;;16.50;99.90;;;;;;8424987;28;19924;-71
2023/08/01 05:11:27;;;;;;;;;;;16.50;99.90;;;;;;8429067;28;19977;-71
2023/08/01 05:15:28;;;;;;;;;;;16.60;99.90;;;;;;8421884;28;19925;-71
2023/08/01 05:19:32;;;;;;;;;;;16.60;99.90;;;;;;8410316;28;19924;-71
2023/08/01 05:23:34;;;;;;;;;;;16.60;99.90;;;;;;8407650;28;19924;-71
2023/08/01 05:27:35;;;;;;;;;;;16.60;99.90;;;;;;8404535;28;20395;-71
2023/08/01 05:31:37;;;;;;;;;;;16.60;99.90;;;;;;8427182;28;19924;-71
2023/08/01 05:35:41;;;;;;;;;;;16.70;99.90;;;;;;8410518;28;19928;-71
2023/08/01 05:39:43;;;;;;;;;;;16.80;99.90;;;;;;8416706;28;19932;-71
2023/08/01 05:43:46;;;;;;;;;;;16.70;99.90;;;;;;8422266;28;19976;-71
2023/08/01 05:47:48;;;;;;;;;;;16.80;99.90;;;;;;8427807;28;19976;-71
2023/08/01 05:51:50;;;;;;;;;;;16.70;99.90;;;;;;8407571;28;20309;-71
2023/08/01 05:55:51;;;;;;;;;;;16.80;99.90;;;;;;8425149;28;19924;-71
2023/08/01 05:59:53;;;;;;;;;;;16.80;99.90;;;;;;8408961;28;19928;-71
2023/08/01 06:03:55;;;;;;;;;;;16.80;99.90;;;;;;8425570;28;19924;-71
2023/08/01 06:07:56;;;;;;;;;;;16.80;99.90;;;;;;8427659;28;20276;-71
2023/08/01 06:11:58;;;;;;;;;;;16.80;99.90;;;;;;8422174;28;20329;-71
2023/08/01 06:16:00;;;;;;;;;;;16.80;99.90;;;;;;8421431;28;19928;-71
2023/08/01 06:20:04;;;;;;;;;;;16.90;99.90;;;;;;8427349;28;19928;-71
2023/08/01 06:24:07;;;;;;;;;;;16.80;99.90;;;;;;8412040;28;19924;-71
2023/08/01 06:28:09;;;;;;;;;;;16.90;99.90;;;;;;8414350;28;19927;-71
2023/08/01 06:32:11;;;;;;;;;;;17.00;99.90;;;;;;8423272;28;20006;-71
2023/08/01 06:36:13;;;;;;;;;;;17.10;99.90;;;;;;8407436;28;20367;-71
2023/08/01 06:40:17;;;;;;;;;;;17.20;99.90;;;;;;8424100;28;19954;-71
2023/08/01 06:54:25;;;;;;;;;;;17.40;99.90;;;;;;8414865;28;20402;-71
2023/08/01 06:58:27;;;;;;;;;;;17.50;99.90;;;;;;8407493;28;19928;-71
2023/08/01 07:02:29;;;;;;;;;;;17.60;99.90;;;;;;8419019;28;19931;-71
2023/08/01 07:06:31;;;;;;;;;;;17.70;99.90;;;;;;8416820;28;20323;-71
2023/08/01 07:10:35;;;;;;;;;;;17.70;99.90;;;;;;8421671;28;20274;-71
2023/08/01 07:14:37;;;;;;;;;;;17.80;99.90;;;;;;8412521;28;19928;-71
2023/08/01 07:18:39;;;;;;;;;;;17.80;99.90;;;;;;8414621;28;19925;-71
2023/08/01 07:22:40;;;;;;;;;;;17.90;99.90;;;;;;8416396;28;19932;-71
2023/08/01 07:26:42;;;;;;;;;;;17.90;99.90;;;;;;8420424;28;20371;-71
2023/08/01 07:30:43;;;;;;;;;;;17.80;99.90;;;;;;8420364;28;19923;-72
2023/08/01 07:34:45;;;;;;;;;;;17.60;99.90;;;;;;8411627;28;19932;-71
2023/08/01 07:38:47;;;;;;;;;;;17.40;99.90;;;;;;8412138;28;19924;-71
2023/08/01 07:42:50;;;;;;;;;;;17.20;99.90;;;;;;8394907;28;19973;-71
2023/08/01 07:46:51;;;;;;;;;;;17.10;99.90;;;;;;8428938;28;19924;-71
2023/08/01 07:50:53;;;;;;;;;;;17.10;99.90;;;;;;8420915;28;19933;-71
2023/08/01 07:54:57;;;;;;;;;;;17.10;99.90;;;;;;8412089;28;19924;-71
2023/08/01 07:58:59;;;;;;;;;;;17.30;99.90;;;;;;8407749;28;19927;-71
2023/08/01 08:03:00;;;;;;;;;;;17.40;99.90;;;;;;8419998;28;19924;-71
2023/08/01 08:07:02;;;;;;;;;;;17.50;99.90;;;;;;8410394;28;19928;-73
2023/08/01 08:11:04;;;;;;;;;;;17.60;99.90;;;;;;8425535;28;19985;-71
2023/08/01 08:15:06;;;;;;;;;;;17.60;99.90;;;;;;8429543;28;19924;-71
2023/08/01 08:19:08;;;;;;;;;;;17.60;99.90;;;;;;8429296;28;19924;-71
2023/08/01 08:23:10;;;;;;;;;;;17.60;99.90;;;;;;8398229;28;19946;-71
2023/08/01 08:27:12;;;;;;;;;;;17.70;99.90;;;;;;8424085;28;20287;-70
2023/08/01 08:31:14;;;;;;;;;;;17.80;99.90;;;;;;8423135;28;19932;-69
2023/08/01 08:35:16;;;;;;;;;;;18.00;99.90;;;;;;8426516;28;20280;-71
2023/08/01 08:39:18;;;;;;;;;;;18.10;99.90;;;;;;8426595;28;19924;-71
2023/08/01 08:43:20;;;;;;;;;;;18.20;99.90;;;;;;8412680;28;19924;-72
2023/08/01 08:47:25;;;;;;;;;;;18.20;99.90;;;;;;8423505;28;19923;-71
2023/08/01 08:51:28;;;;;;;;;;;18.20;99.90;;;;;;8417563;28;19924;-72
2023/08/01 08:55:31;;;;;;;;;;;18.30;99.90;;;;;;8426208;28;19924;-70
2023/08/01 08:59:33;;;;;;;;;;;18.20;99.90;;;;;;8414220;28;20011;-71
2023/08/01 09:03:34;;;;;;;;;;;18.30;99.90;;;;;;8428676;28;19988;-71
2023/08/01 09:07:39;;;;;;;;;;;18.40;99.90;;;;;;8423710;28;19977;-71
2023/08/01 09:11:45;;;;;;;;;;;18.40;99.90;;;;;;8418051;28;20326;-72
2023/08/01 09:15:47;;;;;;;;;;;18.40;99.90;;;;;;8416921;28;19953;-73
2023/08/01 09:19:54;;;;;;;;;;;18.40;99.90;;;;;;8424490;28;19935;-72
2023/08/01 09:23:56;;;;;;;;;;;18.40;99.90;;;;;;8431814;28;19928;-72
2023/08/01 09:27:57;;;;;;;;;;;18.50;99.90;;;;;;8409933;28;19924;-73
2023/08/01 09:31:59;;;;;;;;;;;18.50;99.90;;;;;;8423566;28;19924;-73
2023/08/01 09:36:03;;;;;;;;;;;18.50;99.90;;;;;;8422761;28;19924;-73
2023/08/01 09:40:05;;;;;;;;;;;18.40;99.90;;;;;;8425206;28;20371;-73
2023/08/01 09:44:10;;;;;;;;;;;18.50;99.90;;;;;;8428507;28;19924;-73
2023/08/01 09:48:20;;;;;;;;;;;18.50;99.90;;;;;;8408094;28;19932;-73
2023/08/01 09:52:29;;;;;;;;;;;18.50;99.90;;;;;;8421726;28;19928;-73
2023/08/01 09:56:30;;;;;;;;;;;18.60;99.90;;;;;;8423043;28;19928;-73
2023/08/01 10:00:32;;;;;;;;;;;18.80;99.90;;;;;;8421734;28;20372;-73
2023/08/01 10:04:35;;;;;;;;;;;18.90;99.90;;;;;;8424424;28;19924;-72
2023/08/01 10:08:39;;;;;;;;;;;19.00;99.90;;;;;;8403699;28;20436;-73
2023/08/01 10:12:43;;;;;;;;;;;19.10;99.90;;;;;;8426591;28;19928;-73
2023/08/01 10:16:45;;;;;;;;;;;19.00;99.90;;;;;;8408400;28;19924;-73
2023/08/01 10:20:47;;;;;;;;;;;19.00;99.90;;;;;;8401095;28;19931;-73
2023/08/01 10:24:49;;;;;;;;;;;18.90;99.90;;;;;;8416382;28;20357;-73
2023/08/01 10:28:51;;;;;;;;;;;18.90;99.90;;;;;;8422220;28;19931;-73
2023/08/01 10:32:57;;;;;;;;;;;18.90;99.90;;;;;;8421780;28;19928;-73
2023/08/01 10:36:59;;;;;;;;;;;18.80;99.90;;;;;;8397646;28;19998;-73
2023/08/01 10:41:01;;;;;;;;;;;18.90;99.90;;;;;;8418664;28;19928;-73
2023/08/01 10:45:03;;;;;;;;;;;19.00;99.90;;;;;;8403068;28;20286;-73
2023/08/01 10:49:04;;;;;;;;;;;19.10;99.90;;;;;;8412511;28;19932;-71
2023/08/01 10:53:07;;;;;;;;;;;19.10;99.90;;;;;;8432082;28;19924;-72
2023/08/01 10:57:14;;;;;;;;;;;19.10;99.90;;;;;;8433104;28;19925;-71
2023/08/01 11:01:16;;;;;;;;;;;19.00;99.90;;;;;;8430820;28;20390;-71
2023/08/01 11:05:18;;;;;;;;;;;19.20;99.90;;;;;;8416961;28;19931;-71
2023/08/01 11:09:21;;;;;;;;;;;19.30;99.90;;;;;;8430838;28;19931;-71
2023/08/01 11:13:23;;;;;;;;;;;19.30;99.90;;;;;;8429426;28;19928;-71
2023/08/01 11:17:25;;;;;;;;;;;19.30;99.90;;;;;;8411365;28;19925;-71
2023/08/01 11:21:29;;;;;;;;;;;19.50;99.90;;;;;;8426944;28;20321;-71
2023/08/01 11:25:32;;;;;;;;;;;19.60;99.90;;;;;;8420843;28;19970;-71
2023/08/01 11:29:38;;;;;;;;;;;19.60;99.90;;;;;;8421447;28;20030;-71
2023/08/01 11:33:39;;;;;;;;;;;19.60;99.90;;;;;;8430219;28;19924;-71
2023/08/01 11:37:41;;;;;;;;;;;19.60;99.90;;;;;;8427111;28;19982;-71
2023/08/01 11:41:44;;;;;;;;;;;19.50;99.90;;;;;;8412267;28;19928;-71
2023/08/01 11:45:49;;;;;;;;;;;19.40;99.90;;;;;;8406823;28;19981;-71
2023/08/01 11:49:51;;;;;;;;;;;19.20;99.90;;;;;;8414897;28;19931;-71
2023/08/01 11:54:03;;;;;;;;;;;19.20;99.90;;;;;;8404409;28;20374;-71
2023/08/01 11:58:05;;;;;;;;;;;19.20;99.90;;;;;;8404918;28;19924;-71
2023/08/01 12:02:06;;;;;;;;;;;19.20;99.90;;;;;;8427580;28;20275;-71
2023/08/01 12:06:08;;;;;;;;;;;19.20;99.90;;;;;;8412307;28;19928;-71
2023/08/01 12:10:10;;;;;;;;;;;19.30;99.90;;;;;;8428210;28;19941;-71
2023/08/01 12:14:13;;;;;;;;;;;19.30;99.90;;;;;;8431945;28;19928;-71
2023/08/01 12:18:25;;;;;;;;;;;19.20;99.90;;;;;;8398591;28;20368;-71
2023/08/01 12:22:29;;;;;;;;;;;19.10;99.90;;;;;;8416926;28;20332;-70
2023/08/01 12:26:31;;;;;;;;;;;19.10;99.90;;;;;;8424500;28;19924;-70
2023/08/01 12:30:33;;;;;;;;;;;19.40;99.90;;;;;;8416361;28;20375;-70
2023/08/01 12:34:34;;;;;;;;;;;19.50;99.90;;;;;;8419739;28;20368;-71
2023/08/01 12:38:36;;;;;;;;;;;19.60;99.90;;;;;;8421084;28;19928;-71
2023/08/01 12:42:38;;;;;;;;;;;19.70;99.90;;;;;;8407623;28;19954;-71
2023/08/01 12:46:39;;;;;;;;;;;19.90;99.90;;;;;;8423521;28;20005;-71
2023/08/01 12:50:45;;;;;;;;;;;19.90;99.90;;;;;;8424997;28;19936;-71
2023/08/01 12:54:47;;;;;;;;;;;19.90;99.90;;;;;;8409228;28;19924;-71
2023/08/01 12:58:48;;;;;;;;;;;19.90;99.90;;;;;;8406436;28;19931;-71
2023/08/01 13:02:50;;;;;;;;;;;19.90;99.90;;;;;;8387858;28;19962;-71
2023/08/01 13:06:52;;;;;;;;;;;19.90;99.90;;;;;;8406541;28;19924;-71
2023/08/01 13:10:53;;;;;;;;;;;19.80;99.90;;;;;;8388570;28;20394;-71
2023/08/01 13:14:55;;;;;;;;;;;19.70;99.90;;;;;;8406910;28;20394;-71
2023/08/01 13:19:08;;;;;;;;;;;19.50;99.90;;;;;;8391610;28;19930;-71
2023/08/01 13:23:10;;;;;;;;;;;19.40;99.90;;;;;;8401523;28;20356;-71
2023/08/01 13:27:11;;;;;;;;;;;19.40;99.90;;;;;;8399953;28;20697;-71
2023/08/01 13:31:13;;;;;;;;;;;19.40;99.90;;;;;;8399836;28;19924;-71
2023/08/01 13:35:15;;;;;;;;;;;19.50;99.90;;;;;;8407210;28;19932;-70
2023/08/01 13:39:16;;;;;;;;;;;19.60;99.90;;;;;;8385261;28;19928;-71
2023/08/01 13:43:18;;;;;;;;;;;19.70;99.90;;;;;;8407700;28;19924;-71
2023/08/01 13:47:20;;;;;;;;;;;19.90;99.90;;;;;;8401140;28;19970;-71
2023/08/01 13:51:21;;;;;;;;;;;20.00;99.90;;;;;;8384833;28;20015;-71
2023/08/01 13:55:23;;;;;;;;;;;20.10;99.90;;;;;;8407580;28;20001;-71
2023/08/01 13:59:25;;;;;;;;;;;20.10;99.90;;;;;;8406207;28;20436;-71
2023/08/01 14:03:27;;;;;;;;;;;20.20;99.90;;;;;;8402100;28;19931;-71
2023/08/01 14:07:29;;;;;;;;;;;20.10;99.90;;;;;;8404059;28;19929;-71
2023/08/01 14:11:30;;;;;;;;;;;19.90;99.90;;;;;;8406161;28;19931;-70
2023/08/01 14:15:32;;;;;;;;;;;19.80;99.90;;;;;;8408423;28;20047;-71
2023/08/01 14:19:33;;;;;;;;;;;19.70;99.90;;;;;;8403406;28;20395;-71
2023/08/01 14:23:37;;;;;;;;;;;19.60;99.90;;;;;;8401258;28;19933;-71
2023/08/01 14:27:39;;;;;;;;;;;19.50;99.90;;;;;;8391200;28;19977;-71
2023/08/01 14:31:40;;;;;;;;;;;19.50;99.90;;;;;;8398124;28;20284;-71
2023/08/01 14:35:42;;;;;;;;;;;19.40;99.90;;;;;;8402040;28;19973;-70
2023/08/01 14:39:44;;;;;;;;;;;19.40;99.90;;;;;;8401586;28;19981;-70
2023/08/01 14:43:46;;;;;;;;;;;19.50;99.90;;;;;;8388297;28;19928;-71
2023/08/01 14:47:47;;;;;;;;;;;19.60;99.90;;;;;;8399142;28;19929;-71
2023/08/01 14:51:49;;;;;;;;;;;19.70;99.90;;;;;;8397883;28;19932;-71
2023/08/01 14:55:59;;;;;;;;;;;19.70;99.90;;;;;;8405029;28;19989;-70
2023/08/01 15:00:01;;;;;;;;;;;19.70;99.90;;;;;;8387230;28;19954;-71
2023/08/01 15:04:03;;;;;;;;;;;19.70;99.90;;;;;;8404500;28;19924;-72
2023/08/01 15:08:05;;;;;;;;;;;19.70;99.90;;;;;;8383699;28;19928;-71
2023/08/01 15:12:07;;;;;;;;;;;19.70;99.90;;;;;;8398865;28;20082;-70
2023/08/01 15:16:10;;;;;;;;;;;19.60;99.90;;;;;;8403145;28;20399;-71
2023/08/01 15:20:12;;;;;;;;;;;19.60;99.90;;;;;;8386980;28;19932;-71
2023/08/01 15:24:14;;;;;;;;;;;19.50;99.90;;;;;;8385437;28;19924;-71
2023/08/01 15:28:16;;;;;;;;;;;19.40;99.90;;;;;;8387082;28;19924;-71
2023/08/01 15:32:18;;;;;;;;;;;19.40;99.90;;;;;;8394466;28;19924;-71
2023/08/01 15:36:25;;;;;;;;;;;19.40;99.90;;;;;;8408090;28;20375;-71
2023/08/01 15:40:27;;;;;;;;;;;19.20;99.90;;;;;;8406873;28;20326;-70
2023/08/01 15:44:29;;;;;;;;;;;18.80;99.90;;;;;;8390265;28;21548;-70
2023/08/01 15:48:34;;;;;;;;;;;18.30;99.90;;;;;;8408750;28;19959;-70
2023/08/01 15:52:35;;;;;;;;;;;18.00;99.90;;;;;;8386439;28;19924;-71
2023/08/01 15:56:37;;;;;;;;;;;17.80;99.90;;;;;;8412635;28;19932;-70
2023/08/01 16:00:39;;;;;;;;;;;17.70;99.90;;;;;;8386353;28;19928;-70
2023/08/01 16:04:41;;;;;;;;;;;17.80;99.90;;;;;;8404701;28;19928;-71
2023/08/01 16:08:42;;;;;;;;;;;17.90;99.90;;;;;;8404629;28;19924;-71
2023/08/01 16:12:44;;;;;;;;;;;18.00;99.90;;;;;;8406994;28;19928;-71
2023/08/01 16:16:46;;;;;;;;;;;18.30;99.90;;;;;;8403734;28;19939;-71
2023/08/01 16:20:48;;;;;;;;;;;18.50;99.90;;;;;;8407983;28;19932;-71
2023/08/01 16:24:50;;;;;;;;;;;18.70;99.90;;;;;;8407630;28;20406;-70
2023/08/01 16:28:51;;;;;;;;;;;18.70;99.90;;;;;;8386331;28;19925;-71
2023/08/01 16:32:53;;;;;;;;;;;18.80;99.90;;;;;;8406103;28;19928;-71
2023/08/01 16:36:55;;;;;;;;;;;18.90;99.90;;;;;;8407779;28;20383;-70
2023/08/01 16:40:57;;;;;;;;;;;19.10;99.90;;;;;;8388864;28;19931;-71
2023/08/01 16:44:59;;;;;;;;;;;19.30;99.90;;;;;;8405996;28;19932;-71
2023/08/01 16:49:00;;;;;;;;;;;19.30;99.90;;;;;;8406870;28;19997;-70
2023/08/01 16:53:18;;;;;;;;;;;19.30;99.90;;;;;;8405083;28;19931;-71
2023/08/01 16:57:20;;;;;;;;;;;19.20;99.90;;;;;;8403674;28;20272;-70
2023/08/01 17:01:22;;;;;;;;;;;19.20;99.90;;;;;;8403150;28;19924;-71
2023/08/01 17:05:24;;;;;;;;;;;19.20;99.90;;;;;;8407696;28;19924;-70
2023/08/01 17:09:25;;;;;;;;;;;19.20;99.90;;;;;;8389847;28;20284;-70
2023/08/01 17:13:27;;;;;;;;;;;19.20;99.90;;;;;;8408384;28;20382;-71
2023/08/01 17:17:30;;;;;;;;;;;19.10;99.90;;;;;;8404416;28;19978;-71
2023/08/01 17:21:32;;;;;;;;;;;19.10;99.90;;;;;;8403381;28;19931;-71
2023/08/01 17:35:53;;;;;;;;;;;19.10;99.90;;;;;;8406556;28;20405;-71
2023/08/01 17:39:55;;;;;;;;;;;19.10;99.90;;;;;;8404473;28;20409;-71
2023/08/01 17:43:58;;;;;;;;;;;19.10;99.90;;;;;;8405938;28;19931;-71
2023/08/01 17:48:00;;;;;;;;;;;19.10;99.90;;;;;;8399114;28;20315;-71
2023/08/01 17:52:02;;;;;;;;;;;19.10;99.90;;;;;;8408756;28;19979;-71
2023/08/01 17:56:04;;;;;;;;;;;19.10;99.90;;;;;;8388447;28;20317;-71
2023/08/01 18:00:06;;;;;;;;;;;19.10;99.90;;;;;;8402964;28;19961;-71
2023/08/01 18:04:08;;;;;;;;;;;19.10;99.90;;;;;;8408255;28;19924;-71
2023/08/01 18:08:10;;;;;;;;;;;19.00;99.90;;;;;;8407644;28;19935;-72
2023/08/01 18:12:12;;;;;;;;;;;19.00;99.90;;;;;;8405192;28;20292;-70
2023/08/01 18:16:24;;;;;;;;;;;19.00;99.90;;;;;;8385317;28;19931;-71
2023/08/01 18:20:26;;;;;;;;;;;19.00;99.90;;;;;;8393923;28;19932;-71
2023/08/01 18:24:29;;;;;;;;;;;19.00;99.90;;;;;;8399023;28;19928;-71
2023/08/01 18:28:31;;;;;;;;;;;19.00;99.90;;;;;;8386074;28;19928;-71
2023/08/01 18:32:33;;;;;;;;;;;18.90;99.90;;;;;;8391712;28;19935;-70
2023/08/01 18:36:35;;;;;;;;;;;18.90;99.90;;;;;;8388093;28;19925;-71
2023/08/01 18:40:38;;;;;;;;;;;18.90;99.90;;;;;;8402239;28;20337;-71
2023/08/01 18:44:40;;;;;;;;;;;18.90;99.90;;;;;;8404102;28;20557;-71
2023/08/01 18:48:42;;;;;;;;;;;18.80;99.90;;;;;;8401897;28;19932;-71
2023/08/01 18:52:50;;;;;;;;;;;18.80;99.90;;;;;;8404506;28;20014;-71
2023/08/01 18:56:51;;;;;;;;;;;18.80;99.90;;;;;;8403575;28;19925;-70
2023/08/01 19:00:53;;;;;;;;;;;18.80;99.90;;;;;;8403608;28;19971;-71
2023/08/01 19:04:55;;;;;;;;;;;18.70;99.90;;;;;;8402269;28;20437;-70
2023/08/01 19:08:56;;;;;;;;;;;18.70;99.90;;;;;;8401690;28;20255;-71
2023/08/01 19:13:18;;;;;;;;;;;18.70;99.90;;;;;;8408319;28;19924;-70
2023/08/01 19:17:20;;;;;;;;;;;18.70;99.90;;;;;;8409779;28;19939;-71
2023/08/01 19:21:21;;;;;;;;;;;18.70;99.90;;;;;;8400842;28;19932;-71
2023/08/01 19:25:24;;;;;;;;;;;18.60;99.90;;;;;;8402287;28;19935;-71
2023/08/01 19:29:25;;;;;;;;;;;18.60;99.90;;;;;;8411008;28;19964;-71
2023/08/01 19:33:27;;;;;;;;;;;18.50;99.90;;;;;;8411468;28;19928;-70
2023/08/01 19:37:29;;;;;;;;;;;18.50;99.90;;;;;;8389484;28;19928;-71
2023/08/01 19:41:31;;;;;;;;;;;18.40;99.90;;;;;;8393031;28;20377;-71
2023/08/01 19:45:32;;;;;;;;;;;18.40;99.90;;;;;;8404578;28;19954;-70
2023/08/01 19:49:34;;;;;;;;;;;18.40;99.90;;;;;;8391656;28;20261;-71
2023/08/01 19:53:36;;;;;;;;;;;18.40;99.90;;;;;;8406554;28;19928;-71
2023/08/01 20:07:44;;;;;;;;;;;18.30;99.90;;;;;;8406059;28;19934;-71
2023/08/01 20:11:46;;;;;;;;;;;18.20;99.90;;;;;;8400072;28;19956;-70
2023/08/01 20:15:49;;;;;;;;;;;18.20;99.90;;;;;;8405058;28;19977;-70
2023/08/01 20:19:52;;;;;;;;;;;18.20;99.90;;;;;;8405784;28;19925;-70
2023/08/01 20:23:56;;;;;;;;;;;18.20;99.90;;;;;;8407046;28;19928;-71
2023/08/01 20:27:57;;;;;;;;;;;18.20;99.90;;;;;;8389755;28;20429;-71
2023/08/01 20:31:59;;;;;;;;;;;18.20;99.90;;;;;;8389344;28;20279;-70
2023/08/01 20:36:01;;;;;;;;;;;18.20;99.90;;;;;;8388884;28;19924;-71
2023/08/01 20:40:04;;;;;;;;;;;18.20;99.90;;;;;;8403024;28;20536;-70
2023/08/01 20:44:06;;;;;;;;;;;18.20;99.90;;;;;;8409235;28;19932;-70
2023/08/01 20:48:08;;;;;;;;;;;18.20;99.90;;;;;;8406244;28;19954;-71
2023/08/01 20:52:13;;;;;;;;;;;18.20;99.90;;;;;;8402594;28;19928;-71
2023/08/01 20:56:15;;;;;;;;;;;18.10;99.90;;;;;;8401888;28;19925;-70
2023/08/01 21:00:16;;;;;;;;;;;18.10;99.90;;;;;;8403472;28;19928;-70
2023/08/01 21:04:18;;;;;;;;;;;18.10;99.90;;;;;;8405039;28;19924;-71
2023/08/01 21:08:20;;;;;;;;;;;18.00;99.90;;;;;;8423087;28;19939;-70
2023/08/01 21:12:21;;;;;;;;;;;18.00;99.90;;;;;;8428320;28;19954;-70
2023/08/01 21:26:29;;;;;;;;;;;17.80;99.90;;;;;;8387340;28;19970;-70
2023/08/01 21:30:31;;;;;;;;;;;17.80;99.90;;;;;;8421033;28;19924;-71
2023/08/01 21:34:33;;;;;;;;;;;17.80;99.90;;;;;;8395283;28;20372;-71
2023/08/01 21:38:35;;;;;;;;;;;17.70;99.90;;;;;;8419474;28;19973;-70
2023/08/01 21:42:37;;;;;;;;;;;17.70;99.90;;;;;;8401982;28;19928;-70
2023/08/01 21:46:39;;;;;;;;;;;17.70;99.90;;;;;;8421246;28;19928;-70
2023/08/01 21:50:40;;;;;;;;;;;17.60;99.90;;;;;;8424589;28;19976;-70
2023/08/01 21:54:42;;;;;;;;;;;17.60;99.90;;;;;;8411212;28;19929;-70
2023/08/01 21:58:44;;;;;;;;;;;17.50;99.90;;;;;;8428281;28;19949;-70
2023/08/01 22:02:46;;;;;;;;;;;17.50;99.90;;;;;;8421358;28;19939;-70
2023/08/01 22:06:47;;;;;;;;;;;17.50;99.90;;;;;;8418079;28;20337;-70
2023/08/01 22:10:53;;;;;;;;;;;17.50;99.90;;;;;;8425726;28;19985;-70
2023/08/01 22:14:57;;;;;;;;;;;17.40;99.90;;;;;;8415538;28;21358;-71
2023/08/01 22:18:58;;;;;;;;;;;17.40;99.90;;;;;;8425172;28;20236;-70
2023/08/01 22:23:00;;;;;;;;;;;17.30;99.90;;;;;;8422803;28;19924;-70
2023/08/01 22:37:33;;;;;;;;;;;17.20;99.90;;;;;;8413759;28;20376;-70
2023/08/01 22:41:35;;;;;;;;;;;17.20;99.90;;;;;;8420300;28;19977;-70
2023/08/01 22:45:37;;;;;;;;;;;17.20;99.90;;;;;;8421785;28;19974;-70
2023/08/01 22:49:38;;;;;;;;;;;17.20;99.90;;;;;;8421558;28;19924;-70
2023/08/01 22:53:49;;;;;;;;;;;17.20;99.90;;;;;;8403273;28;19924;-70
2023/08/01 22:57:51;;;;;;;;;;;17.10;99.90;;;;;;8402287;28;19924;-71
2023/08/01 23:01:53;;;;;;;;;;;17.20;99.90;;;;;;8424500;28;20364;-70
2023/08/01 23:05:55;;;;;;;;;;;17.10;99.90;;;;;;8426162;28;19932;-70
2023/08/01 23:10:04;;;;;;;;;;;17.10;99.90;;;;;;8420046;28;20295;-70
2023/08/01 23:14:06;;;;;;;;;;;17.10;99.90;;;;;;8403254;28;20343;-70
2023/08/01 23:18:08;;;;;;;;;;;17.10;99.90;;;;;;8425516;28;19932;-70
2023/08/01 23:22:09;;;;;;;;;;;17.10;99.90;;;;;;8413968;28;19924;-70
2023/08/01 23:26:11;;;;;;;;;;;17.10;99.90;;;;;;8411580;28;19928;-70
2023/08/01 23:30:13;;;;;;;;;;;17.10;99.90;;;;;;8425980;28;19925;-70
2023/08/01 23:34:14;;;;;;;;;;;17.10;99.90;;;;;;8424549;28;19982;-70
2023/08/01 23:48:28;;;;;;;;;;;17.00;99.90;;;;;;8416954;28;19919;-70
2023/08/01 23:52:30;;;;;;;;;;;17.00;99.90;;;;;;8425504;28;19924;-70
2023/08/01 23:56:32;;;;;;;;;;;17.00;99.90;;;;;;8403085;28;19928;-70
